Azure — ZCEE2 — position and weather

sailwx.info

Track history (hours):
 
Tides and Currents Weather Stations Pressure Air Temp Water Temp Dewpoint Dewpoint Depression Visibility Wind Speed Wind Dir Waves Ship Positions

Azure

Last reported at 2018-Dec-11 23:00 UTC. Time now 2018-Dec-12 14:28 UTC.
Position N 12°12' W 061°48'.

Length 289 m; draft 8.7 m.

Type: Passenger vessel. MMSI: 310610000.

Wind from 100 at 29 knots

Barometer 1015.4 mb
Air temperature 27.2 ° C
Visibility: greater than 10.8 NM
Dewpoint 22.5 ° C
Water temperature 28.0 ° C

Date/timePositionNaut miles runAvg speedWind from/ knotsBaromVisibWave heightAir tempDewpointWater temp
2018-Dec-11 23:00N 12°12' W 061°48'115 4.8 100 / 291015.410.8 27.222.528.0
2018-Dec-10 23:00N 14°00' W 061°06'14 1.1 100 / 151017.610.8 25.620.027.0
2018-Dec-10 10:32N 14°12' W 061°13'220340.1
2018-Dec-10 09:53N 14°21' W 064°60'238 8.5
2018-Dec-09 06:00N 17°44' W 062°52'1018.1
2018-Dec-09 05:26N 17°50' W 063°01'817.8
2018-Dec-09 05:00N 17°54' W 063°08'918.0
2018-Dec-09 04:30N 18°00' W 063°15'1118.2
2018-Dec-09 03:55N 18°07' W 063°24'818.4
2018-Dec-09 03:28N 18°12' W 063°30'918.4
2018-Dec-09 02:59N 18°19' W 063°36'26417.6
2018-Dec-08 12:00N 20°24' W 067°42'20315.6 080 / 221018.710.8 26.520.527.0
2018-Dec-07 23:00N 21°48' W 071°00'25 1.6 080 / 191020.810.8 26.719.528.0
2018-Dec-07 08:00N 21°30' W 070°42'13214.7 090 / 151019.710.8 25.519.328.0
2018-Dec-06 23:00N 20°42' W 068°30'16914.1 060 / 151019.410.8 26.520.527.0
2018-Dec-06 11:00N 19°42' W 065°42'11514.4 080 / 101018.610.8 25.221.928.0
2018-Dec-06 03:00N 18°48' W 063°54'4513.0 100 / 161018.210.8 27.021.828.0
2018-Dec-05 23:32N 18°12' W 063°25'412.5
2018-Dec-05 23:13N 18°09' W 063°22'314.7
2018-Dec-05 23:00N 18°12' W 063°24'861.5 090 / 151016.610.8 26.921.428.0
2018-Dec-05 22:52N 18°06' W 063°18'16 8.3
2018-Dec-05 20:58N 18°01' W 063°03'0 0.0
2018-Dec-05 20:25N 18°01' W 063°03'0 0.0
2018-Dec-05 19:59N 18°01' W 063°03'0 0.0
2018-Dec-05 19:28N 18°01' W 063°03'0 0.0
2018-Dec-05 18:58N 18°01' W 063°03'0 0.0
2018-Dec-05 18:13N 18°01' W 063°03'0 0.0
2018-Dec-05 17:31N 18°01' W 063°03'0 0.0
2018-Dec-05 17:28N 18°01' W 063°03'0 0.0
2018-Dec-05 16:34N 18°01' W 063°03'0 0.0
2018-Dec-05 16:19N 18°01' W 063°03'0 0.0
2018-Dec-05 15:49N 18°01' W 063°03'0 0.0
2018-Dec-05 15:19N 18°01' W 063°03'0 0.0
2018-Dec-05 14:46N 18°01' W 063°03'0 0.0
2018-Dec-05 14:22N 18°01' W 063°03'0 0.0
2018-Dec-05 13:52N 18°01' W 063°03'0 0.0
2018-Dec-05 13:22N 18°01' W 063°03'0 0.0
2018-Dec-05 12:52N 18°01' W 063°03'0 0.0
2018-Dec-05 12:22N 18°01' W 063°03'0 0.0
2018-Dec-05 11:58N 18°01' W 063°03'0 0.0
2018-Dec-05 11:27N 18°01' W 063°03'0 0.0
2018-Dec-05 10:49N 18°01' W 063°03'3 3.5
2018-Dec-05 10:03N 18°00' W 063°06'4 7.5
2018-Dec-05 09:30N 18°00' W 063°10'4 7.5
2018-Dec-05 08:57N 18°00' W 063°14'13 5.7
2018-Dec-05 06:43N 17°54' W 063°26'3 8.4
2018-Dec-05 06:22N 17°51' W 063°26'5 7.3
2018-Dec-05 05:45N 17°47' W 063°26'4 7.5
2018-Dec-05 05:13N 17°46' W 063°22'2 8.1
2018-Dec-05 04:55N 17°46' W 063°19'3 8.0
2018-Dec-05 04:30N 17°46' W 063°16'5 8.2
2018-Dec-05 03:55N 17°46' W 063°11'4 7.4
2018-Dec-05 03:22N 17°44' W 063°07'2 6.3
2018-Dec-05 03:00N 17°42' W 063°06'3 9.8 090 / 241015.710.8 26.522.127.0
2018-Dec-05 02:40N 17°39' W 063°06'3 7.5
2018-Dec-05 02:16N 17°36' W 063°06'2 7.3
2018-Dec-05 01:59N 17°34' W 063°06'4 7.6
2018-Dec-05 01:28N 17°30' W 063°06'4 7.7
2018-Dec-05 00:57N 17°26' W 063°06'3 7.6
2018-Dec-05 00:31N 17°23' W 063°04'7 7.7
2018-Dec-04 23:37N 17°19' W 062°58'1 7.5
2018-Dec-04 23:30N 17°19' W 062°57'714.9
2018-Dec-04 23:00N 17°12' W 062°54'8 8.4 080 / 181014.210.8 26.521.628.0
2018-Dec-04 22:06N 17°15' W 062°47'10 0.7
2018-Dec-04 08:49N 17°21' W 062°55'411.2
2018-Dec-04 08:26N 17°23' W 062°59'611.2
2018-Dec-04 07:55N 17°27' W 063°04'511.1
2018-Dec-04 07:30N 17°31' W 063°06'611.4
2018-Dec-04 07:00N 17°36' W 063°09'711.2
2018-Dec-04 06:20N 17°42' W 063°13'411.5
2018-Dec-04 05:59N 17°44' W 063°17'611.5
2018-Dec-04 05:25N 17°46' W 063°23'612.1
2018-Dec-04 04:56N 17°48' W 063°29'711.9
2018-Dec-04 04:19N 17°53' W 063°35'411.6
2018-Dec-04 03:58N 17°54' W 063°39'46 9.3
2018-Dec-03 23:00N 18°12' W 064°24'11153.5 060 / 231016.210.8 26.921.928.0
2018-Dec-03 22:55N 18°19' W 064°32'511.5
2018-Dec-03 22:29N 18°24' W 064°33'3 0.2
2018-Dec-03 10:24N 18°25' W 064°36'3 8.2
2018-Dec-03 10:00N 18°24' W 064°33'610.7
2018-Dec-03 09:26N 18°18' W 064°31'512.8
2018-Dec-03 09:01N 18°15' W 064°26'29712.9
2018-Dec-02 09:59N 14°23' W 061°13'  
Track history (hours):
 
Tides and Currents Weather Stations Pressure Air Temp Water Temp Dewpoint Dewpoint Depression Visibility Wind Speed Wind Dir Waves Ship Positions

Azure

Last reported at 2018-Dec-11 23:00 UTC. Time now 2018-Dec-12 14:28 UTC.
Position N 12°12' W 061°48'.

Length 289 m; draft 8.7 m.

Type: Passenger vessel. MMSI: 310610000.

Wind from 100 at 29 knots

Barometer 1015.4 mb
Air temperature 27.2 ° C
Visibility: greater than 10.8 NM
Dewpoint 22.5 ° C
Water temperature 28.0 ° C

Date/timePositionNaut miles runAvg speedWind from/ knotsBaromVisibWave heightAir tempDewpointWater temp
2018-Dec-11 23:00N 12°12' W 061°48'115 4.8 100 / 291015.410.8 27.222.528.0
2018-Dec-10 23:00N 14°00' W 061°06'14 1.1 100 / 151017.610.8 25.620.027.0
2018-Dec-10 10:32N 14°12' W 061°13'220340.1
2018-Dec-10 09:53N 14°21' W 064°60'238 8.5
2018-Dec-09 06:00N 17°44' W 062°52'1018.1
2018-Dec-09 05:26N 17°50' W 063°01'817.8
2018-Dec-09 05:00N 17°54' W 063°08'918.0
2018-Dec-09 04:30N 18°00' W 063°15'1118.2
2018-Dec-09 03:55N 18°07' W 063°24'818.4
2018-Dec-09 03:28N 18°12' W 063°30'918.4
2018-Dec-09 02:59N 18°19' W 063°36'26417.6
2018-Dec-08 12:00N 20°24' W 067°42'20315.6 080 / 221018.710.8 26.520.527.0
2018-Dec-07 23:00N 21°48' W 071°00'25 1.6 080 / 191020.810.8 26.719.528.0
2018-Dec-07 08:00N 21°30' W 070°42'13214.7 090 / 151019.710.8 25.519.328.0
2018-Dec-06 23:00N 20°42' W 068°30'16914.1 060 / 151019.410.8 26.520.527.0
2018-Dec-06 11:00N 19°42' W 065°42'11514.4 080 / 101018.610.8 25.221.928.0
2018-Dec-06 03:00N 18°48' W 063°54'4513.0 100 / 161018.210.8 27.021.828.0
2018-Dec-05 23:32N 18°12' W 063°25'412.5
2018-Dec-05 23:13N 18°09' W 063°22'314.7
2018-Dec-05 23:00N 18°12' W 063°24'861.5 090 / 151016.610.8 26.921.428.0
2018-Dec-05 22:52N 18°06' W 063°18'16 8.3
2018-Dec-05 20:58N 18°01' W 063°03'0 0.0
2018-Dec-05 20:25N 18°01' W 063°03'0 0.0
2018-Dec-05 19:59N 18°01' W 063°03'0 0.0
2018-Dec-05 19:28N 18°01' W 063°03'0 0.0
2018-Dec-05 18:58N 18°01' W 063°03'0 0.0
2018-Dec-05 18:13N 18°01' W 063°03'0 0.0
2018-Dec-05 17:31N 18°01' W 063°03'0 0.0
2018-Dec-05 17:28N 18°01' W 063°03'0 0.0
2018-Dec-05 16:34N 18°01' W 063°03'0 0.0
2018-Dec-05 16:19N 18°01' W 063°03'0 0.0
2018-Dec-05 15:49N 18°01' W 063°03'0 0.0
2018-Dec-05 15:19N 18°01' W 063°03'0 0.0
2018-Dec-05 14:46N 18°01' W 063°03'0 0.0
2018-Dec-05 14:22N 18°01' W 063°03'0 0.0
2018-Dec-05 13:52N 18°01' W 063°03'0 0.0
2018-Dec-05 13:22N 18°01' W 063°03'0 0.0
2018-Dec-05 12:52N 18°01' W 063°03'0 0.0
2018-Dec-05 12:22N 18°01' W 063°03'0 0.0
2018-Dec-05 11:58N 18°01' W 063°03'0 0.0
2018-Dec-05 11:27N 18°01' W 063°03'0 0.0
2018-Dec-05 10:49N 18°01' W 063°03'3 3.5
2018-Dec-05 10:03N 18°00' W 063°06'4 7.5
2018-Dec-05 09:30N 18°00' W 063°10'4 7.5
2018-Dec-05 08:57N 18°00' W 063°14'13 5.7
2018-Dec-05 06:43N 17°54' W 063°26'3 8.4
2018-Dec-05 06:22N 17°51' W 063°26'5 7.3
2018-Dec-05 05:45N 17°47' W 063°26'4 7.5
2018-Dec-05 05:13N 17°46' W 063°22'2 8.1
2018-Dec-05 04:55N 17°46' W 063°19'3 8.0
2018-Dec-05 04:30N 17°46' W 063°16'5 8.2
2018-Dec-05 03:55N 17°46' W 063°11'4 7.4
2018-Dec-05 03:22N 17°44' W 063°07'2 6.3
2018-Dec-05 03:00N 17°42' W 063°06'3 9.8 090 / 241015.710.8 26.522.127.0
2018-Dec-05 02:40N 17°39' W 063°06'3 7.5
2018-Dec-05 02:16N 17°36' W 063°06'2 7.3
2018-Dec-05 01:59N 17°34' W 063°06'4 7.6
2018-Dec-05 01:28N 17°30' W 063°06'4 7.7
2018-Dec-05 00:57N 17°26' W 063°06'3 7.6
2018-Dec-05 00:31N 17°23' W 063°04'7 7.7
2018-Dec-04 23:37N 17°19' W 062°58'1 7.5
2018-Dec-04 23:30N 17°19' W 062°57'714.9
2018-Dec-04 23:00N 17°12' W 062°54'8 8.4 080 / 181014.210.8 26.521.628.0
2018-Dec-04 22:06N 17°15' W 062°47'10 0.7
2018-Dec-04 08:49N 17°21' W 062°55'411.2
2018-Dec-04 08:26N 17°23' W 062°59'611.2
2018-Dec-04 07:55N 17°27' W 063°04'511.1
2018-Dec-04 07:30N 17°31' W 063°06'611.4
2018-Dec-04 07:00N 17°36' W 063°09'711.2
2018-Dec-04 06:20N 17°42' W 063°13'411.5
2018-Dec-04 05:59N 17°44' W 063°17'611.5
2018-Dec-04 05:25N 17°46' W 063°23'612.1
2018-Dec-04 04:56N 17°48' W 063°29'711.9
2018-Dec-04 04:19N 17°53' W 063°35'411.6
2018-Dec-04 03:58N 17°54' W 063°39'46 9.3
2018-Dec-03 23:00N 18°12' W 064°24'11153.5 060 / 231016.210.8 26.921.928.0
2018-Dec-03 22:55N 18°19' W 064°32'511.5
2018-Dec-03 22:29N 18°24' W 064°33'3 0.2
2018-Dec-03 10:24N 18°25' W 064°36'3 8.2
2018-Dec-03 10:00N 18°24' W 064°33'610.7
2018-Dec-03 09:26N 18°18' W 064°31'512.8
2018-Dec-03 09:01N 18°15' W 064°26'29712.9
2018-Dec-02 09:59N 14°23' W 061°13'  

Dump ship's entire track history